sensor_id;sensor_type;location;lat;lon;timestamp;temperature;humidity
42755;DHT22;28407;51.830;5.684;2023-06-10T00:00:02;24.90;48.40
42755;DHT22;28407;51.830;5.684;2023-06-10T00:02:13;24.80;48.40
42755;DHT22;28407;51.830;5.684;2023-06-10T00:04:14;24.80;48.40
42755;DHT22;28407;51.830;5.684;2023-06-10T00:06:16;24.80;48.50
42755;DHT22;28407;51.830;5.684;2023-06-10T00:08:17;24.80;48.50
42755;DHT22;28407;51.830;5.684;2023-06-10T00:10:20;24.70;48.50
42755;DHT22;28407;51.830;5.684;2023-06-10T00:12:20;24.70;48.60
42755;DHT22;28407;51.830;5.684;2023-06-10T00:14:21;24.70;48.60
42755;DHT22;28407;51.830;5.684;2023-06-10T00:16:22;24.70;48.60
42755;DHT22;28407;51.830;5.684;2023-06-10T00:18:22;24.60;48.60
42755;DHT22;28407;51.830;5.684;2023-06-10T00:20:23;24.60;48.60
42755;DHT22;28407;51.830;5.684;2023-06-10T00:22:25;24.50;48.70
42755;DHT22;28407;51.830;5.684;2023-06-10T00:24:29;24.50;48.70
42755;DHT22;28407;51.830;5.684;2023-06-10T00:26:30;24.50;48.70
42755;DHT22;28407;51.830;5.684;2023-06-10T00:28:31;24.40;48.70
42755;DHT22;28407;51.830;5.684;2023-06-10T00:30:32;24.40;48.80
42755;DHT22;28407;51.830;5.684;2023-06-10T00:32:33;24.40;48.90
42755;DHT22;28407;51.830;5.684;2023-06-10T00:34:35;24.40;48.90
42755;DHT22;28407;51.830;5.684;2023-06-10T00:36:36;24.30;48.90
42755;DHT22;28407;51.830;5.684;2023-06-10T00:38:37;24.30;48.90
42755;DHT22;28407;51.830;5.684;2023-06-10T00:40:40;24.30;49.00
42755;DHT22;28407;51.830;5.684;2023-06-10T00:42:41;24.30;49.00
42755;DHT22;28407;51.830;5.684;2023-06-10T00:44:42;24.30;49.00
42755;DHT22;28407;51.830;5.684;2023-06-10T00:46:44;24.30;49.00
42755;DHT22;28407;51.830;5.684;2023-06-10T00:48:45;24.20;49.00
42755;DHT22;28407;51.830;5.684;2023-06-10T00:50:46;24.20;49.00
42755;DHT22;28407;51.830;5.684;2023-06-10T00:52:47;24.20;49.00
42755;DHT22;28407;51.830;5.684;2023-06-10T00:54:49;24.20;49.10
42755;DHT22;28407;51.830;5.684;2023-06-10T00:56:50;24.20;49.10
42755;DHT22;28407;51.830;5.684;2023-06-10T00:58:51;24.20;49.10
42755;DHT22;28407;51.830;5.684;2023-06-10T01:00:52;24.20;49.10
42755;DHT22;28407;51.830;5.684;2023-06-10T01:02:53;24.20;49.20
42755;DHT22;28407;51.830;5.684;2023-06-10T01:04:54;24.20;49.20
42755;DHT22;28407;51.830;5.684;2023-06-10T01:07:15;24.20;49.20
42755;DHT22;28407;51.830;5.684;2023-06-10T01:09:29;24.10;49.30
42755;DHT22;28407;51.830;5.684;2023-06-10T01:11:51;24.10;49.30
42755;DHT22;28407;51.830;5.684;2023-06-10T01:13:55;24.10;49.40
42755;DHT22;28407;51.830;5.684;2023-06-10T01:15:58;24.10;49.50
42755;DHT22;28407;51.830;5.684;2023-06-10T01:20:07;24.00;49.60
42755;DHT22;28407;51.830;5.684;2023-06-10T01:22:12;24.00;49.60
42755;DHT22;28407;51.830;5.684;2023-06-10T01:24:16;24.00;49.70
42755;DHT22;28407;51.830;5.684;2023-06-10T01:26:20;24.00;50.40
42755;DHT22;28407;51.830;5.684;2023-06-10T01:28:46;23.90;50.40
42755;DHT22;28407;51.830;5.684;2023-06-10T01:33:09;23.80;49.90
42755;DHT22;28407;51.830;5.684;2023-06-10T01:35:11;23.80;50.00
42755;DHT22;28407;51.830;5.684;2023-06-10T01:37:14;23.70;50.00
42755;DHT22;28407;51.830;5.684;2023-06-10T01:39:17;23.80;50.10
42755;DHT22;28407;51.830;5.684;2023-06-10T01:41:21;23.70;50.00
42755;DHT22;28407;51.830;5.684;2023-06-10T01:43:22;23.70;50.10
42755;DHT22;28407;51.830;5.684;2023-06-10T01:45:23;23.70;50.10
42755;DHT22;28407;51.830;5.684;2023-06-10T01:47:24;23.60;50.20
42755;DHT22;28407;51.830;5.684;2023-06-10T01:49:25;23.60;50.20
42755;DHT22;28407;51.830;5.684;2023-06-10T01:51:26;23.60;50.20
42755;DHT22;28407;51.830;5.684;2023-06-10T01:53:27;23.50;50.20
42755;DHT22;28407;51.830;5.684;2023-06-10T01:55:28;23.50;50.30
42755;DHT22;28407;51.830;5.684;2023-06-10T01:57:31;23.50;50.20
42755;DHT22;28407;51.830;5.684;2023-06-10T01:59:32;23.50;50.20
42755;DHT22;28407;51.830;5.684;2023-06-10T02:01:34;23.50;50.20
42755;DHT22;28407;51.830;5.684;2023-06-10T02:03:34;23.50;50.20
42755;DHT22;28407;51.830;5.684;2023-06-10T02:05:36;23.50;50.20
42755;DHT22;28407;51.830;5.684;2023-06-10T02:07:37;23.50;50.20
42755;DHT22;28407;51.830;5.684;2023-06-10T02:09:38;23.40;50.20
42755;DHT22;28407;51.830;5.684;2023-06-10T02:11:39;23.40;50.20
42755;DHT22;28407;51.830;5.684;2023-06-10T02:13:40;23.40;50.30
42755;DHT22;28407;51.830;5.684;2023-06-10T02:15:41;23.40;50.30
42755;DHT22;28407;51.830;5.684;2023-06-10T02:17:41;23.30;50.30
42755;DHT22;28407;51.830;5.684;2023-06-10T02:19:42;23.30;50.30
42755;DHT22;28407;51.830;5.684;2023-06-10T02:21:43;23.20;50.30
42755;DHT22;28407;51.830;5.684;2023-06-10T02:23:44;23.30;50.40
42755;DHT22;28407;51.830;5.684;2023-06-10T02:25:45;23.20;50.40
42755;DHT22;28407;51.830;5.684;2023-06-10T02:27:47;23.20;50.40
42755;DHT22;28407;51.830;5.684;2023-06-10T02:29:48;23.20;50.50
42755;DHT22;28407;51.830;5.684;2023-06-10T02:31:49;23.10;50.50
42755;DHT22;28407;51.830;5.684;2023-06-10T02:33:50;23.10;50.50
42755;DHT22;28407;51.830;5.684;2023-06-10T02:35:51;23.10;50.60
42755;DHT22;28407;51.830;5.684;2023-06-10T02:37:52;23.10;50.60
42755;DHT22;28407;51.830;5.684;2023-06-10T02:39:54;23.00;50.60
42755;DHT22;28407;51.830;5.684;2023-06-10T02:41:55;23.00;50.60
42755;DHT22;28407;51.830;5.684;2023-06-10T02:43:56;23.00;50.70
42755;DHT22;28407;51.830;5.684;2023-06-10T02:45:57;23.00;50.70
42755;DHT22;28407;51.830;5.684;2023-06-10T02:47:58;23.00;50.70
42755;DHT22;28407;51.830;5.684;2023-06-10T02:49:59;23.00;50.80
42755;DHT22;28407;51.830;5.684;2023-06-10T02:51:59;22.90;50.70
42755;DHT22;28407;51.830;5.684;2023-06-10T02:54:00;22.90;50.70
42755;DHT22;28407;51.830;5.684;2023-06-10T02:56:01;22.90;50.80
42755;DHT22;28407;51.830;5.684;2023-06-10T02:58:02;22.90;50.80
42755;DHT22;28407;51.830;5.684;2023-06-10T03:00:04;22.90;50.90
42755;DHT22;28407;51.830;5.684;2023-06-10T03:02:10;22.80;50.80
42755;DHT22;28407;51.830;5.684;2023-06-10T03:04:18;22.80;50.90
42755;DHT22;28407;51.830;5.684;2023-06-10T03:06:28;22.70;50.90
42755;DHT22;28407;51.830;5.684;2023-06-10T03:08:42;22.70;51.00
42755;DHT22;28407;51.830;5.684;2023-06-10T03:10:48;22.70;51.10
42755;DHT22;28407;51.830;5.684;2023-06-10T03:12:51;22.70;51.10
42755;DHT22;28407;51.830;5.684;2023-06-10T03:14:52;22.60;51.10
42755;DHT22;28407;51.830;5.684;2023-06-10T03:16:52;22.70;51.10
42755;DHT22;28407;51.830;5.684;2023-06-10T03:18:55;22.60;51.10
42755;DHT22;28407;51.830;5.684;2023-06-10T03:20:56;22.60;51.20
42755;DHT22;28407;51.830;5.684;2023-06-10T03:22:59;22.50;51.20
42755;DHT22;28407;51.830;5.684;2023-06-10T03:25:00;22.60;51.20
42755;DHT22;28407;51.830;5.684;2023-06-10T03:27:02;22.50;51.20
42755;DHT22;28407;51.830;5.684;2023-06-10T03:29:05;22.50;51.10
42755;DHT22;28407;51.830;5.684;2023-06-10T03:31:06;22.50;51.20
42755;DHT22;28407;51.830;5.684;2023-06-10T03:33:07;22.50;51.20
42755;DHT22;28407;51.830;5.684;2023-06-10T03:35:08;22.50;51.20
42755;DHT22;28407;51.830;5.684;2023-06-10T03:37:11;22.50;51.20
42755;DHT22;28407;51.830;5.684;2023-06-10T03:39:12;22.40;51.20
42755;DHT22;28407;51.830;5.684;2023-06-10T03:41:13;22.50;51.30
42755;DHT22;28407;51.830;5.684;2023-06-10T03:43:16;22.50;51.30
42755;DHT22;28407;51.830;5.684;2023-06-10T03:45:16;22.40;51.30
42755;DHT22;28407;51.830;5.684;2023-06-10T03:47:19;22.40;51.30
42755;DHT22;28407;51.830;5.684;2023-06-10T03:49:20;22.40;51.40
42755;DHT22;28407;51.830;5.684;2023-06-10T03:51:21;22.40;51.40
42755;DHT22;28407;51.830;5.684;2023-06-10T03:53:22;22.40;51.50
42755;DHT22;28407;51.830;5.684;2023-06-10T03:55:22;22.40;51.50
42755;DHT22;28407;51.830;5.684;2023-06-10T03:57:24;22.40;52.10
42755;DHT22;28407;51.830;5.684;2023-06-10T03:59:25;22.40;51.60
42755;DHT22;28407;51.830;5.684;2023-06-10T04:01:26;22.30;51.60
42755;DHT22;28407;51.830;5.684;2023-06-10T04:03:27;22.30;51.60
42755;DHT22;28407;51.830;5.684;2023-06-10T04:05:27;22.30;51.70
42755;DHT22;28407;51.830;5.684;2023-06-10T04:07:29;22.30;51.70
42755;DHT22;28407;51.830;5.684;2023-06-10T04:09:31;22.30;51.80
42755;DHT22;28407;51.830;5.684;2023-06-10T04:11:32;22.30;51.80
42755;DHT22;28407;51.830;5.684;2023-06-10T04:13:33;22.20;51.90
42755;DHT22;28407;51.830;5.684;2023-06-10T04:15:34;22.20;51.90
42755;DHT22;28407;51.830;5.684;2023-06-10T04:17:38;22.20;52.00
42755;DHT22;28407;51.830;5.684;2023-06-10T04:19:39;22.20;52.00
42755;DHT22;28407;51.830;5.684;2023-06-10T04:21:43;22.20;52.10
42755;DHT22;28407;51.830;5.684;2023-06-10T04:23:44;22.20;52.20
42755;DHT22;28407;51.830;5.684;2023-06-10T04:25:45;22.20;52.20
42755;DHT22;28407;51.830;5.684;2023-06-10T04:27:46;22.20;52.30
42755;DHT22;28407;51.830;5.684;2023-06-10T04:29:47;22.10;52.40
42755;DHT22;28407;51.830;5.684;2023-06-10T04:31:48;22.10;53.10
42755;DHT22;28407;51.830;5.684;2023-06-10T04:33:49;22.10;52.60
42755;DHT22;28407;51.830;5.684;2023-06-10T04:35:50;22.10;52.80
42755;DHT22;28407;51.830;5.684;2023-06-10T04:37:54;22.00;52.70
42755;DHT22;28407;51.830;5.684;2023-06-10T04:39:55;22.00;52.80
42755;DHT22;28407;51.830;5.684;2023-06-10T04:41:56;22.10;52.90
42755;DHT22;28407;51.830;5.684;2023-06-10T04:43:57;22.00;53.00
42755;DHT22;28407;51.830;5.684;2023-06-10T04:45:58;22.00;53.00
42755;DHT22;28407;51.830;5.684;2023-06-10T04:48:00;22.00;53.00
42755;DHT22;28407;51.830;5.684;2023-06-10T04:50:02;22.00;53.10
42755;DHT22;28407;51.830;5.684;2023-06-10T04:52:04;22.00;53.10
42755;DHT22;28407;51.830;5.684;2023-06-10T04:54:09;22.00;53.20
42755;DHT22;28407;51.830;5.684;2023-06-10T04:56:09;22.00;53.20
42755;DHT22;28407;51.830;5.684;2023-06-10T04:58:10;22.10;53.30
42755;DHT22;28407;51.830;5.684;2023-06-10T05:00:11;22.00;53.20
42755;DHT22;28407;51.830;5.684;2023-06-10T05:02:12;22.00;53.30
42755;DHT22;28407;51.830;5.684;2023-06-10T05:04:13;22.00;53.40
42755;DHT22;28407;51.830;5.684;2023-06-10T05:06:13;22.00;53.40
42755;DHT22;28407;51.830;5.684;2023-06-10T05:08:14;22.00;53.40
42755;DHT22;28407;51.830;5.684;2023-06-10T05:10:15;22.10;53.50
42755;DHT22;28407;51.830;5.684;2023-06-10T05:12:15;22.10;53.40
42755;DHT22;28407;51.830;5.684;2023-06-10T05:14:16;22.10;53.50
42755;DHT22;28407;51.830;5.684;2023-06-10T05:16:19;22.10;53.50
42755;DHT22;28407;51.830;5.684;2023-06-10T05:18:20;22.10;53.50
42755;DHT22;28407;51.830;5.684;2023-06-10T05:20:21;22.20;53.50
42755;DHT22;28407;51.830;5.684;2023-06-10T05:22:22;22.20;53.60
42755;DHT22;28407;51.830;5.684;2023-06-10T05:24:25;22.20;53.60
42755;DHT22;28407;51.830;5.684;2023-06-10T05:26:25;22.20;53.70
42755;DHT22;28407;51.830;5.684;2023-06-10T05:28:26;22.20;53.60
42755;DHT22;28407;51.830;5.684;2023-06-10T05:30:27;22.20;53.60
42755;DHT22;28407;51.830;5.684;2023-06-10T05:32:28;22.20;53.60
42755;DHT22;28407;51.830;5.684;2023-06-10T05:34:30;22.20;53.70
42755;DHT22;28407;51.830;5.684;2023-06-10T05:36:31;22.20;53.80
42755;DHT22;28407;51.830;5.684;2023-06-10T05:38:32;22.30;53.90
42755;DHT22;28407;51.830;5.684;2023-06-10T05:40:33;22.30;53.90
42755;DHT22;28407;51.830;5.684;2023-06-10T05:42:34;22.30;53.90
42755;DHT22;28407;51.830;5.684;2023-06-10T05:44:35;22.30;53.90
42755;DHT22;28407;51.830;5.684;2023-06-10T05:46:35;22.30;53.90
42755;DHT22;28407;51.830;5.684;2023-06-10T05:48:36;22.30;53.90
42755;DHT22;28407;51.830;5.684;2023-06-10T05:50:37;22.30;53.90
42755;DHT22;28407;51.830;5.684;2023-06-10T05:52:39;22.30;54.00
42755;DHT22;28407;51.830;5.684;2023-06-10T05:54:43;22.30;54.00
42755;DHT22;28407;51.830;5.684;2023-06-10T05:56:43;22.40;54.00
42755;DHT22;28407;51.830;5.684;2023-06-10T05:58:44;22.40;54.00
42755;DHT22;28407;51.830;5.684;2023-06-10T06:00:45;22.40;54.00
42755;DHT22;28407;51.830;5.684;2023-06-10T06:02:45;22.40;53.90
42755;DHT22;28407;51.830;5.684;2023-06-10T06:04:46;22.40;54.00
42755;DHT22;28407;51.830;5.684;2023-06-10T06:06:47;22.40;54.00
42755;DHT22;28407;51.830;5.684;2023-06-10T06:08:47;22.40;54.10
42755;DHT22;28407;51.830;5.684;2023-06-10T06:10:48;22.50;54.20
42755;DHT22;28407;51.830;5.684;2023-06-10T06:12:49;22.50;54.10
42755;DHT22;28407;51.830;5.684;2023-06-10T06:14:50;22.50;54.10
42755;DHT22;28407;51.830;5.684;2023-06-10T06:16:50;22.50;53.90
42755;DHT22;28407;51.830;5.684;2023-06-10T06:18:51;22.60;54.00
42755;DHT22;28407;51.830;5.684;2023-06-10T06:20:52;22.60;54.00
42755;DHT22;28407;51.830;5.684;2023-06-10T06:22:52;22.60;54.00
42755;DHT22;28407;51.830;5.684;2023-06-10T06:24:53;22.70;54.00
42755;DHT22;28407;51.830;5.684;2023-06-10T06:26:54;22.70;54.00
42755;DHT22;28407;51.830;5.684;2023-06-10T06:28:55;22.70;53.90
42755;DHT22;28407;51.830;5.684;2023-06-10T06:30:56;22.70;53.90
42755;DHT22;28407;51.830;5.684;2023-06-10T06:32:57;22.80;53.90
42755;DHT22;28407;51.830;5.684;2023-06-10T06:34:57;22.80;53.80
42755;DHT22;28407;51.830;5.684;2023-06-10T06:36:59;22.80;53.80
42755;DHT22;28407;51.830;5.684;2023-06-10T06:39:00;22.90;53.90
42755;DHT22;28407;51.830;5.684;2023-06-10T06:41:01;22.80;53.80
42755;DHT22;28407;51.830;5.684;2023-06-10T06:43:03;22.80;53.80
42755;DHT22;28407;51.830;5.684;2023-06-10T06:45:23;22.90;53.80
42755;DHT22;28407;51.830;5.684;2023-06-10T06:47:24;22.80;53.70
42755;DHT22;28407;51.830;5.684;2023-06-10T06:49:25;22.90;53.90
42755;DHT22;28407;51.830;5.684;2023-06-10T06:51:25;22.90;53.80
42755;DHT22;28407;51.830;5.684;2023-06-10T06:53:26;23.00;53.80
42755;DHT22;28407;51.830;5.684;2023-06-10T06:55:27;23.00;54.40
42755;DHT22;28407;51.830;5.684;2023-06-10T06:57:27;23.00;53.70
42755;DHT22;28407;51.830;5.684;2023-06-10T06:59:28;23.10;53.60
42755;DHT22;28407;51.830;5.684;2023-06-10T07:01:29;23.10;53.50
42755;DHT22;28407;51.830;5.684;2023-06-10T07:03:29;23.10;53.40
42755;DHT22;28407;51.830;5.684;2023-06-10T07:05:30;23.10;53.30
42755;DHT22;28407;51.830;5.684;2023-06-10T07:07:31;23.10;53.30
42755;DHT22;28407;51.830;5.684;2023-06-10T07:09:32;23.20;53.30
42755;DHT22;28407;51.830;5.684;2023-06-10T07:11:32;23.20;53.20
42755;DHT22;28407;51.830;5.684;2023-06-10T07:13:33;23.30;53.20
42755;DHT22;28407;51.830;5.684;2023-06-10T07:15:34;23.30;53.20
42755;DHT22;28407;51.830;5.684;2023-06-10T07:17:35;23.30;53.10
42755;DHT22;28407;51.830;5.684;2023-06-10T07:19:36;23.40;53.10
42755;DHT22;28407;51.830;5.684;2023-06-10T07:21:36;23.40;53.00
42755;DHT22;28407;51.830;5.684;2023-06-10T07:23:42;23.40;52.90
42755;DHT22;28407;51.830;5.684;2023-06-10T07:25:43;23.50;52.90
42755;DHT22;28407;51.830;5.684;2023-06-10T07:27:43;23.50;52.80
42755;DHT22;28407;51.830;5.684;2023-06-10T07:29:44;23.50;52.80
42755;DHT22;28407;51.830;5.684;2023-06-10T07:31:45;23.60;52.80
42755;DHT22;28407;51.830;5.684;2023-06-10T07:33:46;23.60;52.80
42755;DHT22;28407;51.830;5.684;2023-06-10T07:35:47;23.60;52.80
42755;DHT22;28407;51.830;5.684;2023-06-10T07:37:48;23.70;52.70
42755;DHT22;28407;51.830;5.684;2023-06-10T07:39:49;23.70;52.60
42755;DHT22;28407;51.830;5.684;2023-06-10T07:41:49;23.70;52.50
42755;DHT22;28407;51.830;5.684;2023-06-10T07:43:51;23.80;52.50
42755;DHT22;28407;51.830;5.684;2023-06-10T07:45:54;23.80;52.40
42755;DHT22;28407;51.830;5.684;2023-06-10T07:47:55;23.80;52.20
42755;DHT22;28407;51.830;5.684;2023-06-10T07:49:56;23.90;52.10
42755;DHT22;28407;51.830;5.684;2023-06-10T07:51:57;24.00;52.20
42755;DHT22;28407;51.830;5.684;2023-06-10T07:53:58;24.00;52.10
42755;DHT22;28407;51.830;5.684;2023-06-10T07:55:58;24.00;52.00
42755;DHT22;28407;51.830;5.684;2023-06-10T07:57:59;24.00;51.90
42755;DHT22;28407;51.830;5.684;2023-06-10T08:00:00;24.10;51.90
42755;DHT22;28407;51.830;5.684;2023-06-10T08:02:13;24.10;51.80
42755;DHT22;28407;51.830;5.684;2023-06-10T08:04:13;24.10;51.80
42755;DHT22;28407;51.830;5.684;2023-06-10T08:06:14;24.10;51.70
42755;DHT22;28407;51.830;5.684;2023-06-10T08:08:17;24.20;51.70
42755;DHT22;28407;51.830;5.684;2023-06-10T08:10:18;24.20;51.60
42755;DHT22;28407;51.830;5.684;2023-06-10T08:12:18;24.20;51.60
42755;DHT22;28407;51.830;5.684;2023-06-10T08:14:21;24.30;51.60
42755;DHT22;28407;51.830;5.684;2023-06-10T08:16:22;24.40;51.50
42755;DHT22;28407;51.830;5.684;2023-06-10T08:18:22;24.40;51.40
42755;DHT22;28407;51.830;5.684;2023-06-10T08:20:23;24.40;51.40
42755;DHT22;28407;51.830;5.684;2023-06-10T08:22:24;24.40;51.30
42755;DHT22;28407;51.830;5.684;2023-06-10T08:24:25;24.50;51.30
42755;DHT22;28407;51.830;5.684;2023-06-10T08:26:25;24.50;51.20
42755;DHT22;28407;51.830;5.684;2023-06-10T08:28:26;24.60;51.20
42755;DHT22;28407;51.830;5.684;2023-06-10T08:30:27;24.60;51.20
42755;DHT22;28407;51.830;5.684;2023-06-10T08:32:27;24.70;51.20
42755;DHT22;28407;51.830;5.684;2023-06-10T08:34:28;24.70;51.20
42755;DHT22;28407;51.830;5.684;2023-06-10T08:36:29;24.80;51.20
42755;DHT22;28407;51.830;5.684;2023-06-10T08:38:30;24.80;51.10
42755;DHT22;28407;51.830;5.684;2023-06-10T08:40:30;24.90;51.10
42755;DHT22;28407;51.830;5.684;2023-06-10T08:42:39;24.90;51.00
42755;DHT22;28407;51.830;5.684;2023-06-10T08:44:43;24.90;50.90
42755;DHT22;28407;51.830;5.684;2023-06-10T08:46:47;25.00;50.90
42755;DHT22;28407;51.830;5.684;2023-06-10T08:48:49;25.00;50.90
42755;DHT22;28407;51.830;5.684;2023-06-10T08:50:57;25.10;50.90
42755;DHT22;28407;51.830;5.684;2023-06-10T08:52:58;25.10;50.80
42755;DHT22;28407;51.830;5.684;2023-06-10T08:55:03;25.20;50.70
42755;DHT22;28407;51.830;5.684;2023-06-10T08:57:05;25.20;51.30
42755;DHT22;28407;51.830;5.684;2023-06-10T08:59:07;25.30;50.70
42755;DHT22;28407;51.830;5.684;2023-06-10T09:01:08;25.30;50.70
42755;DHT22;28407;51.830;5.684;2023-06-10T09:03:10;25.40;50.70
42755;DHT22;28407;51.830;5.684;2023-06-10T09:05:11;25.40;50.60
42755;DHT22;28407;51.830;5.684;2023-06-10T09:07:13;25.40;50.50
42755;DHT22;28407;51.830;5.684;2023-06-10T09:09:15;25.50;50.40
42755;DHT22;28407;51.830;5.684;2023-06-10T09:11:16;25.60;50.40
42755;DHT22;28407;51.830;5.684;2023-06-10T09:13:17;25.60;50.30
42755;DHT22;28407;51.830;5.684;2023-06-10T09:15:19;25.70;50.30
42755;DHT22;28407;51.830;5.684;2023-06-10T09:17:19;25.70;50.20
42755;DHT22;28407;51.830;5.684;2023-06-10T09:19:20;25.80;50.10
42755;DHT22;28407;51.830;5.684;2023-06-10T09:21:25;25.80;50.00
42755;DHT22;28407;51.830;5.684;2023-06-10T09:23:26;25.90;49.90
42755;DHT22;28407;51.830;5.684;2023-06-10T09:25:37;25.90;49.80
42755;DHT22;28407;51.830;5.684;2023-06-10T09:27:45;26.00;49.60
42755;DHT22;28407;51.830;5.684;2023-06-10T09:29:53;26.10;49.50
42755;DHT22;28407;51.830;5.684;2023-06-10T09:31:54;26.10;49.30
42755;DHT22;28407;51.830;5.684;2023-06-10T09:33:56;26.20;49.30
42755;DHT22;28407;51.830;5.684;2023-06-10T09:36:04;26.20;49.20
42755;DHT22;28407;51.830;5.684;2023-06-10T09:38:05;26.20;49.10
42755;DHT22;28407;51.830;5.684;2023-06-10T09:40:07;26.30;49.10
42755;DHT22;28407;51.830;5.684;2023-06-10T09:42:18;26.50;49.10
42755;DHT22;28407;51.830;5.684;2023-06-10T09:44:20;26.50;49.00
42755;DHT22;28407;51.830;5.684;2023-06-10T09:46:21;26.60;48.90
42755;DHT22;28407;51.830;5.684;2023-06-10T09:48:22;26.70;48.90
42755;DHT22;28407;51.830;5.684;2023-06-10T09:50:24;26.80;48.70
42755;DHT22;28407;51.830;5.684;2023-06-10T09:52:29;26.80;48.60
42755;DHT22;28407;51.830;5.684;2023-06-10T09:54:32;26.90;48.50
42755;DHT22;28407;51.830;5.684;2023-06-10T09:56:34;26.90;48.40
42755;DHT22;28407;51.830;5.684;2023-06-10T09:58:37;27.00;48.20
42755;DHT22;28407;51.830;5.684;2023-06-10T10:00:38;27.10;48.10
42755;DHT22;28407;51.830;5.684;2023-06-10T10:02:45;27.10;48.00
42755;DHT22;28407;51.830;5.684;2023-06-10T10:04:47;27.20;47.90
42755;DHT22;28407;51.830;5.684;2023-06-10T10:06:48;27.30;47.70
42755;DHT22;28407;51.830;5.684;2023-06-10T10:08:50;27.40;47.60
42755;DHT22;28407;51.830;5.684;2023-06-10T10:10:50;27.40;47.40
42755;DHT22;28407;51.830;5.684;2023-06-10T10:12:54;27.50;47.30
42755;DHT22;28407;51.830;5.684;2023-06-10T10:14:56;27.60;47.10
42755;DHT22;28407;51.830;5.684;2023-06-10T10:16:59;27.60;47.00
42755;DHT22;28407;51.830;5.684;2023-06-10T10:19:07;27.70;46.80
42755;DHT22;28407;51.830;5.684;2023-06-10T10:21:12;27.70;46.60
42755;DHT22;28407;51.830;5.684;2023-06-10T10:23:14;27.80;46.40
42755;DHT22;28407;51.830;5.684;2023-06-10T10:25:18;27.90;46.40
42755;DHT22;28407;51.830;5.684;2023-06-10T10:27:44;28.00;46.30
42755;DHT22;28407;51.830;5.684;2023-06-10T10:29:52;28.10;46.10
42755;DHT22;28407;51.830;5.684;2023-06-10T10:31:56;28.10;46.00
42755;DHT22;28407;51.830;5.684;2023-06-10T10:34:02;28.20;45.80
42755;DHT22;28407;51.830;5.684;2023-06-10T10:36:05;28.30;45.80
42755;DHT22;28407;51.830;5.684;2023-06-10T10:38:09;28.30;45.60
42755;DHT22;28407;51.830;5.684;2023-06-10T10:40:09;28.40;45.50
42755;DHT22;28407;51.830;5.684;2023-06-10T10:42:11;28.40;45.40
42755;DHT22;28407;51.830;5.684;2023-06-10T10:44:12;28.40;45.10
42755;DHT22;28407;51.830;5.684;2023-06-10T10:46:15;28.50;45.00
42755;DHT22;28407;51.830;5.684;2023-06-10T10:48:16;28.50;44.80
42755;DHT22;28407;51.830;5.684;2023-06-10T10:50:19;28.60;44.80
42755;DHT22;28407;51.830;5.684;2023-06-10T10:52:20;28.70;44.70
42755;DHT22;28407;51.830;5.684;2023-06-10T10:54:36;28.80;44.60
42755;DHT22;28407;51.830;5.684;2023-06-10T10:59:11;28.90;44.20
42755;DHT22;28407;51.830;5.684;2023-06-10T11:01:14;29.00;44.00
42755;DHT22;28407;51.830;5.684;2023-06-10T11:03:18;29.10;44.30
42755;DHT22;28407;51.830;5.684;2023-06-10T11:05:31;29.20;43.30
42755;DHT22;28407;51.830;5.684;2023-06-10T11:07:33;29.30;43.20
42755;DHT22;28407;51.830;5.684;2023-06-10T11:09:34;29.40;43.20
42755;DHT22;28407;51.830;5.684;2023-06-10T11:11:49;29.40;43.00
42755;DHT22;28407;51.830;5.684;2023-06-10T11:16:05;29.60;42.40
42755;DHT22;28407;51.830;5.684;2023-06-10T11:23:01;29.70;42.00
42755;DHT22;28407;51.830;5.684;2023-06-10T11:25:02;29.80;41.90
42755;DHT22;28407;51.830;5.684;2023-06-10T11:27:23;29.80;41.70
42755;DHT22;28407;51.830;5.684;2023-06-10T11:29:24;29.90;41.40
42755;DHT22;28407;51.830;5.684;2023-06-10T11:31:26;30.00;41.20
42755;DHT22;28407;51.830;5.684;2023-06-10T11:33:27;30.10;41.10
42755;DHT22;28407;51.830;5.684;2023-06-10T11:35:29;30.20;41.10
42755;DHT22;28407;51.830;5.684;2023-06-10T11:37:30;30.20;40.90
42755;DHT22;28407;51.830;5.684;2023-06-10T11:39:32;30.30;40.80
42755;DHT22;28407;51.830;5.684;2023-06-10T11:41:34;30.40;40.70
42755;DHT22;28407;51.830;5.684;2023-06-10T11:43:34;30.50;40.40
42755;DHT22;28407;51.830;5.684;2023-06-10T11:45:35;30.50;40.40
42755;DHT22;28407;51.830;5.684;2023-06-10T11:47:36;30.60;40.40
42755;DHT22;28407;51.830;5.684;2023-06-10T11:49:36;30.70;40.20
42755;DHT22;28407;51.830;5.684;2023-06-10T11:51:38;30.70;40.00
42755;DHT22;28407;51.830;5.684;2023-06-10T11:53:47;30.80;39.80
42755;DHT22;28407;51.830;5.684;2023-06-10T11:55:50;30.90;39.70
42755;DHT22;28407;51.830;5.684;2023-06-10T11:57:51;31.00;39.60
42755;DHT22;28407;51.830;5.684;2023-06-10T12:00:04;31.00;39.30
42755;DHT22;28407;51.830;5.684;2023-06-10T12:02:16;31.10;39.10
42755;DHT22;28407;51.830;5.684;2023-06-10T12:04:17;31.20;38.90
42755;DHT22;28407;51.830;5.684;2023-06-10T12:06:18;31.20;38.80
42755;DHT22;28407;51.830;5.684;2023-06-10T12:08:19;31.30;38.50
42755;DHT22;28407;51.830;5.684;2023-06-10T12:10:20;31.40;38.40
42755;DHT22;28407;51.830;5.684;2023-06-10T12:12:21;31.40;38.10
42755;DHT22;28407;51.830;5.684;2023-06-10T12:14:53;31.50;38.20
42755;DHT22;28407;51.830;5.684;2023-06-10T12:16:57;31.50;38.00
42755;DHT22;28407;51.830;5.684;2023-06-10T12:19:03;31.60;38.00
42755;DHT22;28407;51.830;5.684;2023-06-10T12:21:18;31.70;37.90
42755;DHT22;28407;51.830;5.684;2023-06-10T12:23:20;31.90;37.90
42755;DHT22;28407;51.830;5.684;2023-06-10T12:25:27;31.90;37.60
42755;DHT22;28407;51.830;5.684;2023-06-10T12:27:29;32.00;37.40
42755;DHT22;28407;51.830;5.684;2023-06-10T12:29:30;32.10;37.30
42755;DHT22;28407;51.830;5.684;2023-06-10T12:31:31;32.20;37.30
42755;DHT22;28407;51.830;5.684;2023-06-10T12:33:31;32.20;37.20
42755;DHT22;28407;51.830;5.684;2023-06-10T12:35:32;32.30;37.10
42755;DHT22;28407;51.830;5.684;2023-06-10T12:37:33;32.30;36.80
42755;DHT22;28407;51.830;5.684;2023-06-10T12:39:34;32.40;36.50
42755;DHT22;28407;51.830;5.684;2023-06-10T12:41:37;32.50;36.50
42755;DHT22;28407;51.830;5.684;2023-06-10T12:43:39;32.60;36.40
42755;DHT22;28407;51.830;5.684;2023-06-10T12:45:41;32.70;36.20
42755;DHT22;28407;51.830;5.684;2023-06-10T12:47:45;32.70;36.00
42755;DHT22;28407;51.830;5.684;2023-06-10T12:49:45;32.70;35.90
42755;DHT22;28407;51.830;5.684;2023-06-10T12:51:47;32.70;36.00
42755;DHT22;28407;51.830;5.684;2023-06-10T12:53:47;32.80;35.90
42755;DHT22;28407;51.830;5.684;2023-06-10T12:55:49;32.80;35.90
42755;DHT22;28407;51.830;5.684;2023-06-10T12:57:50;32.90;35.90
42755;DHT22;28407;51.830;5.684;2023-06-10T12:59:51;32.90;35.70
42755;DHT22;28407;51.830;5.684;2023-06-10T13:01:57;33.10;35.60
42755;DHT22;28407;51.830;5.684;2023-06-10T13:03:58;33.20;35.40
42755;DHT22;28407;51.830;5.684;2023-06-10T13:05:59;33.30;35.30